Portada
METAR-TAF:

METAR-TAF

Aeroports :

Hiroshima, Japó

latitud: 34-26N, longitud: 132-55E, altitud: 331 m

Observació

L'informe es va fer fa 38 minuts, a les 03:00 UTC
Vent 10 kt del Oest/Nord-Oest, variant entre Oest i Nord/Nord-Oest
Temperatura 23°C
Humitat 53%
Pressió 1012 hPa
Visibilitat 10 km o més
Núvols disperses a una alçada de 3000 ft

METAR: RJOA 230300Z 30010KT 270V340 9999 SCT030 23/13 Q1012

Hora: 12:38 (03:38 UTC)

Pronòstic

L'informe es va fer fa 4 hores i 31 minuts, a les 23:07 UTC
Pronòstic vàlid del 23 a les 00 UTC al 24 a les 06 UTC
Vent 12 kt del Oest
Visibilitat 10 km o més
Escasses núvols a una alçada de 1500 ft
Cel ennuvolat a una alçada de 3000 ft
Evolucionant progressivament
l' 23 a les 07 UTC al 23 a les 09 UTC
Vent 10 kt del Nord/Nord-Oest

TAF: RJOA 222307Z 2300/2406 27012KT 9999 FEW015 BKN030 BECMG 2307/2309 34010KT

Observacions i pronòstics meteorològics de més de 4000 aeroports (METAR i TAF).

Les estacions disponibles són els punts grocs i vermells al mapa.

Posi el ratolí al punt desitjat per veure el nom de l'estació.

Feu clic per veure les observacions i els pronòstics meteorològics.

Per canviar el mapa: feu clic els botons verds amb una creu de color negre per apropar; al botó verd amb un guió per allunyar la imatge; o en les fletxes verdes per a mapes adjacents.


METAR-TAF: